Luray, KS (67649)

2:21 AM CST on January 31, 2015 (GMT -0600)
LEHMANN | Change Station
CLOSE
Current Station
Personal Weather Station
Location: Luray, KS
Elevation: 1594 ft
Nearby Weather Stations

Elev 1594 ft 39.11 °N, 98.69 °W | Updated 3 minutes ago

Rain
Rain
33.4 °F
Feels Like 29 °F
N
4.7
Wind Variable Wind from SSE

Today
High -- | Low -- °F
--% Chance of Precip.
Yesterday
High -- | Low -- °F
Precip. -- in
7:42 AM 5:54 PM
Waxing Gibbous, 88% visible
Pressure 30.23 in
Visibility 1.2 miles
Clouds Scattered Clouds 1500 ft
Overcast 2200 ft
Windchill 29 °F
Dew Point 32 °F
Humidity 96%
Rainfall 0.05 in
Snow Depth Not available.
UV 0 out of 12
Pollen .10 out of 12
Air Quality Not available.
Flu Activity Not available.
METAR KRSL 310753Z AUTO 18008KT 1 1/4SM -SN BR SCT015 OVC022 01/00 A3020 RMK AO2 RAE05SNB05 SLP237 P0004 T00060000

More Conditions Fewer Conditions

Pressure 30.23 in
Visibility 1.2 miles
Clouds Scattered Clouds 1500 ft
Overcast 2200 ft
Windchill 29 °F
Dew Point 32 °F
Humidity 96%
Rainfall 0.05 in
Snow Depth Not available.
UV 0 out of 12
Pollen .10 out of 12
Air Quality Not available.
Flu Activity Not available.
METAR KRSL 310753Z AUTO 18008KT 1 1/4SM -SN BR SCT015 OVC022 01/00 A3020 RMK AO2 RAE05SNB05 SLP237 P0004 T00060000

More Conditions Fewer Conditions

10-Day Weather Forecast

Almanac

Astronomy

Jan. 31, 2015 Rise Set
Actual Time
Civil Twilight
Nautical Twilight
Astronomical Twilight
Moon
Length of Visible Light
Length of Day
Tomorrow will be .
, % of the Moon is Illuminated

Today's Extremes

State Highs State Lows

Community

WunderPhotos

Upload Photos

1,792,021 photos uploaded!

WunderBlogs® & News

Nearby

Air Quality

  Air Quality AQ Index Pollutant
Not available.

Snow Depth

Station Depth Elevation

Earthquake Activity

City Distance Mag. Time & Date
Minimum magnitude displayed is 2.5.

Coastal Water Temperatures

Place Temperature

Nearby Weather Stations